Time;durP1;ratioP1;P1;durP2;ratioP2;P2;SDS_P1;SDS_P2;PMS_P1;PMS_P2;Temp;Humidity;BMP_temperature;BMP_pressure;BME280_temperature;BME280_humidity;BME280_pressure;Samples;Min_cycle;Max_cycle;Signal;HPM_P1;HPM_P2
2022/06/12 00:02:20;;;;;;;4.50;2.70;;;17.40;99.90;;;;;;5033565;28;20021;-62
2022/06/12 00:04:46;;;;;;;6.25;2.83;;;17.40;99.90;;;;;;5032269;28;20032;-62
2022/06/12 00:07:20;;;;;;;2.85;2.55;;;17.40;99.90;;;;;;5032502;28;20029;-62
2022/06/12 00:09:45;;;;;;;8.98;3.05;;;17.40;99.90;;;;;;5032633;28;20087;-62
2022/06/12 00:12:11;;;;;;;4.40;2.50;;;17.40;99.90;;;;;;5033254;28;20112;-62
2022/06/12 00:14:38;;;;;;;7.55;3.20;;;17.30;99.90;;;;;;5032711;28;20033;-61
2022/06/12 00:17:04;;;;;;;5.82;3.20;;;17.30;99.90;;;;;;5033578;28;20030;-60
2022/06/12 00:19:30;;;;;;;7.65;2.80;;;17.30;99.90;;;;;;5031946;28;20025;-61
2022/06/12 00:21:56;;;;;;;7.95;3.00;;;17.20;99.90;;;;;;5031893;28;20032;-62
2022/06/12 00:24:24;;;;;;;5.78;3.15;;;17.10;99.90;;;;;;5031853;28;20021;-61
2022/06/12 00:26:53;;;;;;;4.65;2.50;;;17.10;99.90;;;;;;5032752;28;20032;-62
2022/06/12 00:29:31;;;;;;;3.60;3.05;;;17.10;99.90;;;;;;5032201;28;20091;-61
2022/06/12 00:32:01;;;;;;;3.42;2.58;;;17.10;99.90;;;;;;5031889;28;20117;-60
2022/06/12 00:34:33;;;;;;;4.03;3.40;;;17.10;99.90;;;;;;5031929;28;20036;-61
2022/06/12 00:36:59;;;;;;;3.40;2.50;;;17.10;99.90;;;;;;5032315;28;20040;-62
2022/06/12 00:39:26;;;;;;;3.72;3.13;;;17.10;99.90;;;;;;5033156;28;20042;-62
2022/06/12 00:41:55;;;;;;;5.97;3.03;;;17.00;99.90;;;;;;5031807;28;20494;-61
2022/06/12 00:44:25;;;;;;;5.60;2.65;;;17.00;99.90;;;;;;5031554;28;20029;-61
2022/06/12 00:46:52;;;;;;;14.88;2.88;;;17.00;99.90;;;;;;5032045;28;20029;-58
2022/06/12 00:49:18;;;;;;;5.03;2.67;;;16.90;99.90;;;;;;5032314;28;20079;-62
2022/06/12 00:51:47;;;;;;;7.05;2.28;;;16.80;99.90;;;;;;5031744;28;20120;-60
2022/06/12 00:54:13;;;;;;;7.40;3.22;;;16.70;99.90;;;;;;5031938;28;20029;-61
2022/06/12 00:56:47;;;;;;;6.15;2.83;;;16.70;99.90;;;;;;5031671;28;20028;-59
2022/06/12 00:59:20;;;;;;;5.13;2.95;;;16.70;99.90;;;;;;5031616;28;20030;-60
2022/06/12 01:01:50;;;;;;;7.32;2.97;;;16.60;99.90;;;;;;5031542;28;20391;-62
2022/06/12 01:07:05;;;;;;;8.10;2.80;;;16.50;99.90;;;;;;5033322;28;20095;-62
2022/06/12 01:09:38;;;;;;;5.60;2.85;;;16.60;99.90;;;;;;5031666;28;20032;-61
2022/06/12 01:12:07;;;;;;;3.88;2.90;;;16.60;99.90;;;;;;5033073;28;20030;-62
2022/06/12 01:14:39;;;;;;;6.15;2.95;;;16.40;99.90;;;;;;5031507;28;20045;-61
2022/06/12 01:17:05;;;;;;;8.98;3.03;;;16.40;99.90;;;;;;5033419;28;20022;-60
2022/06/12 01:19:36;;;;;;;4.28;2.80;;;16.30;99.90;;;;;;5031397;28;20032;-60
2022/06/12 01:22:13;;;;;;;10.93;3.53;;;16.20;99.90;;;;;;5031417;28;20034;-60
2022/06/12 01:25:05;;;;;;;7.82;3.28;;;16.20;99.90;;;;;;5032767;28;20026;-59
2022/06/12 01:27:56;;;;;;;8.15;2.72;;;16.10;99.90;;;;;;5035116;28;20022;-62
2022/06/12 01:30:40;;;;;;;7.38;2.70;;;16.10;99.90;;;;;;5035731;28;20021;-49
2022/06/12 01:33:28;;;;;;;7.65;2.95;;;16.10;99.90;;;;;;5036141;28;20021;-51
2022/06/12 01:35:54;;;;;;;5.93;2.83;;;16.10;99.90;;;;;;5035085;28;20068;-53
2022/06/12 01:38:42;;;;;;;8.60;2.70;;;16.10;99.90;;;;;;5035985;28;20053;-54
2022/06/12 01:41:25;;;;;;;4.68;2.63;;;16.10;99.90;;;;;;5035627;28;20021;-54
2022/06/12 01:44:18;;;;;;;6.57;2.83;;;16.00;99.90;;;;;;5035912;28;20089;-51
2022/06/12 01:47:13;;;;;;;6.85;2.78;;;16.00;99.90;;;;;;5036043;28;20022;-54
2022/06/12 01:49:43;;;;;;;4.93;2.83;;;16.00;99.90;;;;;;5035445;28;20037;-53
2022/06/12 01:52:29;;;;;;;10.88;2.90;;;16.00;99.90;;;;;;5035865;28;20026;-56
2022/06/12 01:55:01;;;;;;;10.02;2.70;;;16.00;99.90;;;;;;5035980;28;20107;-56
2022/06/12 01:57:47;;;;;;;7.45;2.70;;;15.90;99.90;;;;;;5035424;28;20368;-52
2022/06/12 02:00:17;;;;;;;13.35;4.50;;;15.90;99.90;;;;;;5034045;28;20042;-53
2022/06/12 02:02:53;;;;;;;8.30;3.08;;;15.80;99.90;;;;;;5036019;28;20458;-55
2022/06/12 02:05:37;;;;;;;6.68;2.83;;;15.80;99.90;;;;;;5034448;28;20021;-53
2022/06/12 02:08:12;;;;;;;11.30;3.00;;;15.80;99.90;;;;;;5035279;28;20029;-54
2022/06/12 02:10:47;;;;;;;5.53;2.90;;;15.80;99.90;;;;;;5034331;28;20040;-55
2022/06/12 02:13:21;;;;;;;9.95;3.25;;;15.80;99.90;;;;;;5035420;28;20022;-51
2022/06/12 02:16:12;;;;;;;7.72;2.85;;;15.70;99.90;;;;;;5035037;28;20110;-53
2022/06/12 02:18:43;;;;;;;12.82;3.83;;;15.80;99.90;;;;;;5035291;28;20025;-53
2022/06/12 02:21:15;;;;;;;8.73;3.28;;;15.70;99.90;;;;;;5035406;28;20033;-51
2022/06/12 02:24:11;;;;;;;7.43;3.10;;;15.80;99.90;;;;;;5034473;28;20037;-52
2022/06/12 02:26:42;;;;;;;7.25;3.80;;;15.70;99.90;;;;;;5035330;28;20083;-52
2022/06/12 02:29:16;;;;;;;7.85;3.33;;;15.70;99.90;;;;;;5035349;28;20495;-54
2022/06/12 02:31:46;;;;;;;4.82;3.40;;;15.70;99.90;;;;;;5033947;28;20032;-54
2022/06/12 02:34:17;;;;;;;4.00;3.22;;;15.60;99.90;;;;;;5035105;28;20037;-55
2022/06/12 02:36:47;;;;;;;9.70;3.13;;;15.60;99.90;;;;;;5034860;28;20026;-61
2022/06/12 02:39:23;;;;;;;8.00;2.80;;;15.50;99.90;;;;;;5035405;28;20033;-57
2022/06/12 02:41:58;;;;;;;12.77;3.15;;;15.50;99.90;;;;;;5033752;28;20105;-62
2022/06/12 02:44:37;;;;;;;7.43;3.20;;;15.40;99.90;;;;;;5033657;28;20037;-62
2022/06/12 02:47:25;;;;;;;7.60;2.97;;;15.40;99.90;;;;;;5033771;28;20036;-61
2022/06/12 02:49:54;;;;;;;6.22;2.33;;;15.30;99.90;;;;;;5033690;28;20026;-61
2022/06/12 02:52:40;;;;;;;9.55;2.97;;;15.30;99.90;;;;;;5033618;28;20053;-58
2022/06/12 02:55:19;;;;;;;10.10;3.35;;;15.20;99.90;;;;;;5035106;28;20052;-54
2022/06/12 02:57:50;;;;;;;5.53;3.25;;;15.20;99.90;;;;;;5034560;28;20025;-56
2022/06/12 03:00:35;;;;;;;5.97;3.30;;;15.20;99.90;;;;;;5034689;28;20017;-54
2022/06/12 03:03:19;;;;;;;6.25;3.70;;;15.20;99.90;;;;;;5033289;28;20025;-52
2022/06/12 03:05:50;;;;;;;8.50;3.13;;;15.20;99.90;;;;;;5035089;28;20104;-51
2022/06/12 03:08:19;;;;;;;6.32;3.47;;;15.10;99.90;;;;;;5033223;28;20055;-53
2022/06/12 03:11:33;;;;;;;8.35;3.25;;;15.10;99.90;;;;;;5033294;28;20025;-51
2022/06/12 03:14:00;;;;;;;8.20;3.42;;;15.10;99.90;;;;;;5016110;28;20124;-55
2022/06/12 03:16:31;;;;;;;10.93;3.40;;;15.10;99.90;;;;;;5034378;28;20041;-49
2022/06/12 03:19:20;;;;;;;12.25;3.40;;;15.10;99.90;;;;;;5034202;28;20463;-49
2022/06/12 03:22:23;;;;;;;9.32;3.42;;;15.00;99.90;;;;;;5033288;28;20025;-55
2022/06/12 03:25:08;;;;;;;9.05;3.60;;;15.00;99.90;;;;;;5034179;28;20025;-51
2022/06/12 03:27:49;;;;;;;10.20;3.55;;;15.00;99.90;;;;;;5033975;28;20021;-49
2022/06/12 03:30:44;;;;;;;7.27;3.03;;;15.00;99.90;;;;;;5033303;28;20064;-48
2022/06/12 03:33:10;;;;;;;9.63;3.95;;;15.10;99.90;;;;;;5029209;28;20208;-48
2022/06/12 03:36:04;;;;;;;7.32;3.47;;;15.20;99.90;;;;;;5033609;28;20057;-49
2022/06/12 03:38:45;;;;;;;11.18;3.75;;;15.10;99.90;;;;;;5033669;28;20048;-49
2022/06/12 03:41:31;;;;;;;7.30;3.72;;;15.10;99.90;;;;;;5032624;28;20499;-49
2022/06/12 03:44:10;;;;;;;14.10;3.97;;;15.20;99.90;;;;;;5032488;28;20034;-49
2022/06/12 03:46:47;;;;;;;7.25;4.18;;;15.20;99.90;;;;;;5032619;28;20021;-49
2022/06/12 03:49:16;;;;;;;10.00;4.00;;;15.20;99.90;;;;;;5032814;28;20079;-49
2022/06/12 03:51:56;;;;;;;10.10;3.70;;;15.20;99.90;;;;;;5033629;28;20029;-51
2022/06/12 03:54:54;;;;;;;7.55;3.22;;;15.20;99.90;;;;;;5033670;28;20025;-57
2022/06/12 04:00:16;;;;;;;9.23;4.00;;;15.40;99.90;;;;;;5033912;28;20075;-51
2022/06/12 04:03:05;;;;;;;7.00;3.88;;;15.70;99.90;;;;;;5032308;28;20079;-53
2022/06/12 04:05:36;;;;;;;8.65;3.88;;;15.80;99.90;;;;;;5029231;28;20029;-49
2022/06/12 04:08:04;;;;;;;9.38;3.40;;;16.00;99.90;;;;;;5033767;28;20029;-50
2022/06/12 04:10:34;;;;;;;12.65;3.58;;;16.20;99.90;;;;;;5032450;28;20025;-49
2022/06/12 04:13:01;;;;;;;10.20;3.70;;;16.40;99.90;;;;;;5033293;28;20465;-50
2022/06/12 04:15:39;;;;;;;10.50;4.10;;;16.60;99.90;;;;;;5033119;28;20044;-49
2022/06/12 04:18:05;;;;;;;6.10;3.78;;;16.70;99.90;;;;;;5032156;28;20037;-49
2022/06/12 04:20:54;;;;;;;4.55;3.38;;;17.00;99.90;;;;;;5032071;28;20032;-53
2022/06/12 04:23:23;;;;;;;8.75;2.90;;;17.30;99.90;;;;;;5032698;28;20021;-49
2022/06/12 04:25:53;;;;;;;10.38;3.63;;;17.60;99.90;;;;;;5033103;28;20071;-49
2022/06/12 04:28:30;;;;;;;11.15;3.15;;;17.90;99.90;;;;;;5033271;28;20487;-52
2022/06/12 04:30:57;;;;;;;14.43;3.72;;;18.20;99.90;;;;;;5032662;28;20040;-49
2022/06/12 04:33:32;;;;;;;12.15;3.28;;;18.30;99.90;;;;;;5032218;28;20060;-62
2022/06/12 04:36:00;;;;;;;9.68;3.75;;;18.60;99.90;;;;;;5032402;28;20026;-62
2022/06/12 04:38:28;;;;;;;6.65;3.45;;;19.00;99.90;;;;;;5033291;28;20033;-61
2022/06/12 04:40:54;;;;;;;9.48;2.88;;;19.30;99.90;;;;;;5033281;28;20018;-60
2022/06/12 04:43:21;;;;;;;8.23;2.83;;;19.60;99.90;;;;;;5032007;28;20035;-60
2022/06/12 04:45:47;;;;;;;12.27;3.15;;;19.80;99.90;;;;;;5033363;28;20014;-60
2022/06/12 04:48:19;;;;;;;6.75;2.60;;;20.10;99.90;;;;;;5033333;28;20083;-59
2022/06/12 04:50:45;;;;;;;8.77;2.97;;;20.40;99.90;;;;;;5033636;28;20495;-60
2022/06/12 04:53:11;;;;;;;8.30;3.22;;;20.70;99.90;;;;;;5032682;28;20033;-60
2022/06/12 04:55:36;;;;;;;8.85;3.20;;;20.90;99.90;;;;;;5031927;28;20026;-57
2022/06/12 04:58:04;;;;;;;10.38;3.42;;;21.10;99.90;;;;;;5031790;28;20029;-58
2022/06/12 05:00:29;;;;;;;9.70;2.88;;;21.40;99.90;;;;;;5035838;28;20021;-53
2022/06/12 05:02:55;;;;;;;5.65;3.60;;;21.60;99.90;;;;;;5035899;28;20124;-59
2022/06/12 05:05:21;;;;;;;5.60;3.38;;;21.80;99.90;;;;;;5035791;28;20021;-59
2022/06/12 05:07:46;;;;;;;8.60;3.13;;;22.10;99.90;;;;;;5036930;28;20021;-58
2022/06/12 05:10:14;;;;;;;5.00;2.53;;;22.50;99.90;;;;;;5035620;28;20022;-59
2022/06/12 05:12:40;;;;;;;6.20;3.60;;;22.70;99.90;;;;;;5035934;28;20121;-60
2022/06/12 05:15:07;;;;;;;5.97;2.97;;;22.80;99.90;;;;;;5036025;28;20112;-59
2022/06/12 05:17:32;;;;;;;8.57;3.03;;;23.10;99.90;;;;;;5036784;28;20018;-59
2022/06/12 05:19:59;;;;;;;4.03;2.70;;;23.40;99.90;;;;;;5035339;28;20084;-60
2022/06/12 05:22:25;;;;;;;4.70;2.92;;;23.70;99.90;;;;;;5036518;28;20034;-59
2022/06/12 05:24:52;;;;;;;4.20;2.63;;;24.20;99.90;;;;;;5035643;28;20029;-60
2022/06/12 05:27:22;;;;;;;3.75;2.30;;;24.60;99.90;;;;;;5035321;28;20075;-60
2022/06/12 05:29:49;;;;;;;6.35;3.08;;;24.90;99.90;;;;;;5036498;28;20033;-59
2022/06/12 05:32:17;;;;;;;3.95;2.80;;;25.30;99.90;;;;;;5036366;28;20033;-59
2022/06/12 05:34:43;;;;;;;4.63;2.80;;;25.70;99.90;;;;;;5036651;28;20040;-59
2022/06/12 05:37:10;;;;;;;9.75;3.20;;;26.20;99.90;;;;;;5035085;28;20187;-60
2022/06/12 05:39:37;;;;;;;6.13;2.70;;;26.60;99.90;;;;;;5034991;28;20040;-60
2022/06/12 05:42:03;;;;;;;3.47;2.75;;;27.00;99.90;;;;;;5036492;28;20025;-57
2022/06/12 05:44:29;;;;;;;4.05;2.58;;;27.20;99.90;;;;;;5036126;28;20042;-60
2022/06/12 05:46:55;;;;;;;4.75;2.70;;;27.20;99.90;;;;;;5034995;28;20480;-60
2022/06/12 05:49:22;;;;;;;6.05;2.80;;;27.40;99.90;;;;;;5036356;28;20049;-60
2022/06/12 05:51:48;;;;;;;5.88;2.67;;;27.80;99.90;;;;;;5036087;28;20075;-60
2022/06/12 05:54:14;;;;;;;5.65;2.78;;;28.10;99.90;;;;;;5035183;28;20041;-60
2022/06/12 05:56:40;;;;;;;6.95;2.60;;;28.40;99.90;;;;;;5035616;28;20029;-59
2022/06/12 05:59:06;;;;;;;4.68;2.70;;;28.60;99.90;;;;;;5034650;28;20040;-60
2022/06/12 06:01:31;;;;;;;3.67;2.25;;;29.00;99.90;;;;;;5035963;28;20021;-60
2022/06/12 06:03:57;;;;;;;5.97;2.47;;;29.30;99.90;;;;;;5034603;28;20022;-58
2022/06/12 06:06:31;;;;;;;3.95;1.52;;;29.40;99.90;;;;;;5035510;28;20022;-59
2022/06/12 06:08:57;;;;;;;2.95;2.00;;;29.80;99.90;;;;;;5035441;28;20029;-58
2022/06/12 06:11:24;;;;;;;3.63;2.03;;;30.40;99.90;;;;;;5033794;28;20053;-60
2022/06/12 06:13:49;;;;;;;3.45;2.53;;;30.90;99.90;;;;;;5034411;28;20025;-60
2022/06/12 06:16:15;;;;;;;4.13;2.30;;;31.30;99.90;;;;;;5035906;28;20028;-60
2022/06/12 06:18:41;;;;;;;3.63;2.40;;;31.30;99.90;;;;;;5034268;28;20069;-61
2022/06/12 06:21:08;;;;;;;3.30;2.20;;;31.80;99.90;;;;;;5034674;28;20041;-60
2022/06/12 06:23:35;;;;;;;3.70;1.70;;;32.30;99.90;;;;;;5034501;28;20032;-60
2022/06/12 06:26:01;;;;;;;4.35;2.55;;;32.80;99.90;;;;;;5034154;28;20087;-61
2022/06/12 06:28:27;;;;;;;3.15;1.95;;;33.10;99.90;;;;;;5034606;28;20543;-60
2022/06/12 06:30:52;;;;;;;4.18;2.00;;;33.40;99.40;;;;;;5035362;28;20026;-60
2022/06/12 06:33:18;;;;;;;3.97;1.80;;;33.70;98.60;;;;;;5035326;28;20060;-61
2022/06/12 06:35:44;;;;;;;5.00;2.20;;;34.20;96.50;;;;;;5035020;28;20026;-61
2022/06/12 06:38:09;;;;;;;4.82;2.30;;;34.30;95.40;;;;;;5035985;28;20037;-60
2022/06/12 06:40:35;;;;;;;3.97;2.00;;;34.50;94.80;;;;;;5033901;28;20029;-58
2022/06/12 06:43:01;;;;;;;2.60;1.83;;;34.60;93.50;;;;;;5034116;28;20029;-60
2022/06/12 06:48:12;;;;;;;3.35;1.95;;;34.80;91.70;;;;;;5035545;28;20072;-60
2022/06/12 06:50:39;;;;;;;3.92;2.00;;;34.80;91.20;;;;;;5035024;28;20041;-59
2022/06/12 06:53:05;;;;;;;3.88;2.15;;;35.00;90.90;;;;;;5033749;28;20025;-59
2022/06/12 06:55:32;;;;;;;3.13;1.80;;;34.70;91.10;;;;;;5034924;28;20033;-60
2022/06/12 06:57:58;;;;;;;2.75;1.80;;;34.60;90.80;;;;;;5034798;28;20365;-60
2022/06/12 07:00:28;;;;;;;3.75;2.15;;;35.00;89.70;;;;;;5033710;28;20029;-61
2022/06/12 07:02:53;;;;;;;8.43;2.03;;;35.30;89.20;;;;;;5052697;23;20044;-59
2022/06/12 07:05:21;;;;;;;3.42;1.67;;;35.70;88.10;;;;;;5015353;28;20117;-59
2022/06/12 07:07:47;;;;;;;4.60;1.70;;;36.40;87.00;;;;;;5030024;28;20018;-59
2022/06/12 07:10:18;;;;;;;4.13;1.90;;;36.80;86.00;;;;;;5030227;28;20053;-60
2022/06/12 07:12:44;;;;;;;2.80;1.60;;;37.50;83.10;;;;;;5013869;28;20521;-58
2022/06/12 07:15:11;;;;;;;3.85;1.92;;;37.60;82.40;;;;;;5014803;28;20037;-60
2022/06/12 07:17:37;;;;;;;6.07;1.83;;;38.00;80.50;;;;;;5013612;28;20049;-60
2022/06/12 07:20:03;;;;;;;5.43;2.25;;;37.90;77.80;;;;;;5013713;28;20034;-60
2022/06/12 07:22:29;;;;;;;5.10;2.28;;;38.40;74.20;;;;;;5013002;28;20160;-59
2022/06/12 07:24:54;;;;;;;3.45;1.70;;;38.60;73.30;;;;;;5014392;28;20084;-59
2022/06/12 07:27:20;;;;;;;3.58;1.98;;;38.20;76.00;;;;;;5014462;28;20021;-55
2022/06/12 07:29:46;;;;;;;3.75;1.55;;;37.90;72.60;;;;;;5015384;28;20491;-58
2022/06/12 07:32:12;;;;;;;4.03;2.15;;;38.20;73.20;;;;;;5013227;28;20032;-55
2022/06/12 07:34:38;;;;;;;3.80;1.80;;;38.50;70.90;;;;;;5013464;28;20026;-57
2022/06/12 07:37:07;;;;;;;2.85;2.08;;;39.00;71.50;;;;;;5013227;28;20057;-59
2022/06/12 07:39:33;;;;;;;5.17;2.50;;;39.60;68.80;;;;;;5013119;28;20053;-59
2022/06/12 07:41:59;;;;;;;9.30;2.15;;;40.00;67.90;;;;;;5013052;28;20025;-58
2022/06/12 07:44:28;;;;;;;2.97;2.08;;;40.40;67.40;;;;;;5014119;28;20018;-58
2022/06/12 07:46:56;;;;;;;3.65;1.70;;;40.10;66.90;;;;;;5013136;28;20049;-57
2022/06/12 07:49:23;;;;;;;3.10;1.88;;;40.30;64.60;;;;;;5013759;28;20113;-59
2022/06/12 07:51:50;;;;;;;6.57;2.10;;;40.80;62.50;;;;;;5013265;28;20026;-59
2022/06/12 07:54:19;;;;;;;4.07;1.90;;;41.40;60.80;;;;;;5013068;28;20117;-59
2022/06/12 07:57:04;;;;;;;4.43;2.35;;;41.40;63.20;;;;;;5013941;28;20022;-59
2022/06/12 07:59:30;;;;;;;4.80;1.73;;;41.90;60.60;;;;;;5013843;28;20033;-59
2022/06/12 08:01:56;;;;;;;2.80;1.90;;;42.10;60.00;;;;;;5013532;28;20030;-59
2022/06/12 08:04:23;;;;;;;3.13;2.00;;;42.20;59.10;;;;;;5013892;28;20038;-58
2022/06/12 08:06:49;;;;;;;4.32;2.20;;;42.30;58.80;;;;;;5013851;28;20468;-59
2022/06/12 08:09:16;;;;;;;4.53;1.92;;;42.30;58.70;;;;;;5013900;28;20053;-59
2022/06/12 08:11:44;;;;;;;6.43;2.53;;;42.30;56.80;;;;;;5013737;28;20030;-58
2022/06/12 08:14:09;;;;;;;4.78;2.45;;;42.80;57.50;;;;;;5012784;28;20033;-58
2022/06/12 08:16:36;;;;;;;5.97;2.40;;;43.10;56.10;;;;;;5013862;28;20022;-57
2022/06/12 08:19:03;;;;;;;2.95;1.60;;;43.30;55.80;;;;;;5012481;28;20026;-54
2022/06/12 08:21:29;;;;;;;4.50;2.03;;;43.30;55.90;;;;;;5012455;28;20018;-58
2022/06/12 08:23:59;;;;;;;5.85;2.47;;;43.90;54.40;;;;;;5013891;28;20032;-57
2022/06/12 08:26:26;;;;;;;6.95;2.25;;;43.50;53.80;;;;;;5012450;28;20030;-60
2022/06/12 08:28:56;;;;;;;5.55;2.40;;;43.50;53.60;;;;;;5013299;28;20026;-60
2022/06/12 08:31:37;;;;;;;4.00;2.00;;;44.10;52.80;;;;;;5012931;28;20018;-59
2022/06/12 08:34:06;;;;;;;8.68;2.72;;;44.30;52.70;;;;;;5013051;28;20068;-60
2022/06/12 08:36:32;;;;;;;7.70;2.70;;;44.40;51.50;;;;;;5012446;28;20022;-60
2022/06/12 08:38:58;;;;;;;5.00;2.03;;;44.90;51.60;;;;;;5014005;28;20026;-60
2022/06/12 08:41:39;;;;;;;6.45;2.40;;;44.60;50.70;;;;;;5012359;28;20095;-60
2022/06/12 08:44:10;;;;;;;5.78;2.28;;;44.60;50.30;;;;;;5012259;28;20399;-59
2022/06/12 08:47:06;;;;;;;8.73;2.92;;;45.20;51.60;;;;;;5013756;28;20018;-59
2022/06/12 08:49:53;;;;;;;5.30;2.22;;;44.70;49.60;;;;;;5012237;28;20499;-59
2022/06/12 08:52:26;;;;;;;6.53;2.47;;;43.90;50.70;;;;;;5012301;28;20038;-58
2022/06/12 08:55:08;;;;;;;4.85;2.20;;;44.50;51.10;;;;;;5013147;28;20030;-58
2022/06/12 08:58:02;;;;;;;4.07;2.35;;;44.60;50.80;;;;;;5013444;28;20026;-58
2022/06/12 09:00:35;;;;;;;6.90;2.35;;;43.70;50.30;;;;;;5012180;28;20026;-56
2022/06/12 09:03:05;;;;;;;4.90;2.05;;;43.80;50.50;;;;;;5013182;28;20022;-58
2022/06/12 09:05:57;;;;;;;4.18;2.03;;;43.00;51.10;;;;;;5013312;28;20044;-55
2022/06/12 09:08:59;;;;;;;4.43;2.03;;;41.40;52.90;;;;;;4997888;28;20094;-55
2022/06/12 09:11:43;;;;;;;4.03;1.80;;;40.60;53.40;;;;;;5013271;28;20480;-54
2022/06/12 09:14:32;;;;;;;3.17;1.63;;;41.20;51.70;;;;;;5013224;28;20026;-57
2022/06/12 09:17:07;;;;;;;4.75;1.83;;;41.70;52.00;;;;;;5013265;28;20547;-58
2022/06/12 09:19:40;;;;;;;5.32;2.10;;;41.60;52.20;;;;;;5013055;28;20025;-59
2022/06/12 09:22:25;;;;;;;1.95;1.67;;;42.20;51.60;;;;;;5011910;28;20022;-59
2022/06/12 09:25:00;;;;;;;3.55;1.70;;;43.00;49.80;;;;;;5011962;28;20113;-59
2022/06/12 09:27:32;;;;;;;4.32;2.00;;;43.10;49.60;;;;;;5013430;28;20097;-59
2022/06/12 09:30:17;;;;;;;3.40;1.80;;;43.40;48.90;;;;;;5013333;28;20025;-57
2022/06/12 09:32:55;;;;;;;3.85;2.00;;;43.70;48.50;;;;;;5012958;28;20388;-59
2022/06/12 09:35:44;;;;;;;5.38;1.55;;;44.50;48.60;;;;;;5013116;28;20072;-59
2022/06/12 09:38:49;;;;;;;6.88;1.98;;;44.90;46.50;;;;;;5012996;28;20488;-59
2022/06/12 09:41:45;;;;;;;2.53;1.92;;;45.40;46.10;;;;;;4982479;28;20480;-59
2022/06/12 09:44:36;;;;;;;6.75;1.92;;;45.40;45.60;;;;;;5011714;28;20117;-59
2022/06/12 09:47:14;;;;;;;5.55;1.90;;;45.40;45.90;;;;;;5006227;28;20029;-59
2022/06/12 09:49:39;;;;;;;3.80;1.90;;;45.60;46.30;;;;;;5016402;28;20488;-59
2022/06/12 09:52:35;;;;;;;2.58;1.80;;;45.60;46.60;;;;;;5016347;28;20041;-59
2022/06/12 09:55:22;;;;;;;3.22;2.03;;;46.00;46.00;;;;;;5002265;28;20030;-59
2022/06/12 09:57:59;;;;;;;3.05;2.08;;;45.50;44.60;;;;;;5016354;28;20029;-56
2022/06/12 10:00:34;;;;;;;5.68;2.15;;;45.20;46.50;;;;;;5016311;28;20039;-57
2022/06/12 10:03:18;;;;;;;4.03;2.20;;;44.10;46.60;;;;;;5016404;28;20033;-59
2022/06/12 10:06:22;;;;;;;4.50;2.10;;;43.20;47.60;;;;;;5016085;28;20050;-58
2022/06/12 10:09:08;;;;;;;1.85;1.65;;;43.30;46.30;;;;;;5016038;28;20026;-57
2022/06/12 10:12:02;;;;;;;3.08;1.52;;;42.80;46.10;;;;;;5016358;28;20060;-56
2022/06/12 10:14:32;;;;;;;2.47;1.50;;;43.20;45.60;;;;;;4992175;28;20091;-58
2022/06/12 10:16:59;;;;;;;;;;;43.30;45.50;;;;;;5015045;28;20445;-54
2022/06/12 10:19:40;;;;;;;4.55;1.70;;;43.20;45.40;;;;;;5015890;28;20056;-57
2022/06/12 10:22:29;;;;;;;3.65;1.45;;;43.00;44.50;;;;;;5014628;28;20030;-56
2022/06/12 10:24:56;;;;;;;3.20;2.10;;;43.20;44.60;;;;;;5014490;28;20025;-57
2022/06/12 10:27:22;;;;;;;5.70;1.70;;;43.20;45.50;;;;;;5015678;28;20032;-57
2022/06/12 10:30:00;;;;;;;4.15;1.83;;;42.50;45.10;;;;;;5015665;28;20036;-58
2022/06/12 10:32:49;;;;;;;2.60;1.55;;;41.60;46.60;;;;;;5014310;28;20116;-59
2022/06/12 10:35:21;;;;;;;3.72;1.67;;;40.70;47.40;;;;;;5014480;28;20030;-57
2022/06/12 10:37:48;;;;;;;4.45;1.83;;;39.30;47.70;;;;;;5015126;28;20036;-57
2022/06/12 10:40:18;;;;;;;4.43;1.60;;;38.70;48.50;;;;;;5014391;28;20026;-57
2022/06/12 10:42:47;;;;;;;5.07;1.40;;;38.30;48.50;;;;;;5014181;28;20029;-58
2022/06/12 10:45:50;;;;;;;3.33;1.38;;;37.60;49.50;;;;;;5014245;28;20133;-57
2022/06/12 10:48:21;;;;;;;5.85;1.35;;;37.00;50.00;;;;;;5015630;28;20097;-58
2022/06/12 10:50:56;;;;;;;2.85;1.40;;;36.10;51.40;;;;;;5015874;28;20463;-57
2022/06/12 10:53:32;;;;;;;3.58;1.23;;;35.50;51.50;;;;;;5013871;28;20090;-59
2022/06/12 10:56:16;;;;;;;3.70;1.20;;;34.80;52.70;;;;;;5014832;28;20040;-59
2022/06/12 10:59:10;;;;;;;1.65;1.02;;;34.30;54.00;;;;;;5013711;28;20022;-58
2022/06/12 11:02:02;;;;;;;2.08;1.17;;;33.70;54.70;;;;;;5015740;28;20024;-58
2022/06/12 11:04:54;;;;;;;3.50;1.10;;;33.40;55.00;;;;;;5006651;28;20038;-57
2022/06/12 11:07:37;;;;;;;2.00;1.10;;;33.10;55.30;;;;;;5014296;28;20109;-57
2022/06/12 11:10:11;;;;;;;3.83;1.20;;;33.00;54.10;;;;;;5015225;28;20026;-58
2022/06/12 11:13:00;;;;;;;3.33;1.30;;;32.90;54.30;;;;;;5014342;28;20061;-59
2022/06/12 11:15:32;;;;;;;6.82;1.15;;;32.50;55.40;;;;;;5014406;28;20030;-58
2022/06/12 11:18:36;;;;;;;3.22;1.10;;;32.30;55.20;;;;;;5013541;28;20037;-56
2022/06/12 11:21:08;;;;;;;3.08;1.13;;;31.70;56.30;;;;;;5012854;28;20061;-53
2022/06/12 11:24:05;;;;;;;3.53;1.30;;;31.20;56.20;;;;;;5014545;28;20026;-57
2022/06/12 11:26:47;;;;;;;5.85;1.42;;;31.00;56.20;;;;;;5014927;28;20115;-57
2022/06/12 11:29:39;;;;;;;4.30;1.45;;;30.80;57.20;;;;;;5014502;28;20025;-57
2022/06/12 11:32:41;;;;;;;4.43;1.35;;;30.60;56.90;;;;;;5014532;28;20025;-58
2022/06/12 11:35:34;;;;;;;4.95;1.17;;;30.30;57.70;;;;;;5013623;28;20018;-57
2022/06/12 11:38:34;;;;;;;3.08;1.20;;;30.40;58.40;;;;;;5014043;28;20029;-57
2022/06/12 11:41:12;;;;;;;2.72;1.13;;;30.40;57.70;;;;;;5013935;28;20036;-57
2022/06/12 11:43:59;;;;;;;3.28;1.20;;;30.40;58.20;;;;;;5013033;28;20026;-56
2022/06/12 11:46:50;;;;;;;4.82;1.35;;;30.20;57.40;;;;;;5013046;28;20072;-52
2022/06/12 11:49:27;;;;;;;6.82;1.30;;;30.30;57.40;;;;;;5014296;28;20026;-52
2022/06/12 11:52:34;;;;;;;5.40;1.08;;;30.20;57.90;;;;;;5013462;28;20057;-52
2022/06/12 11:55:15;;;;;;;6.68;1.20;;;30.10;57.90;;;;;;5014154;28;20026;-55
2022/06/12 11:57:49;;;;;;;4.57;1.40;;;30.10;57.90;;;;;;5012873;28;20115;-54
2022/06/12 12:00:15;;;;;;;1.98;1.05;;;30.00;58.00;;;;;;5012976;28;20072;-56
2022/06/12 12:03:05;;;;;;;3.22;0.95;;;29.80;58.30;;;;;;5012810;28;20018;-49
2022/06/12 12:05:46;;;;;;;5.70;1.30;;;29.70;60.10;;;;;;5012839;28;20022;-52
2022/06/12 12:08:11;;;;;;;;;;;29.70;57.50;;;;;;5013253;28;20026;-52
2022/06/12 12:10:58;;;;;;;3.08;1.45;;;29.60;59.10;;;;;;5013185;28;19906;-50
2022/06/12 12:13:29;;;;;;;1.38;0.85;;;29.60;60.40;;;;;;5013388;28;20033;-50
2022/06/12 12:16:02;;;;;;;4.68;1.33;;;29.40;58.80;;;;;;5013890;28;20026;-58
2022/06/12 12:18:49;;;;;;;2.63;1.30;;;29.40;59.70;;;;;;5013288;28;20026;-55
2022/06/12 12:21:30;;;;;;;2.55;1.10;;;29.20;59.70;;;;;;5013983;28;20014;-51
2022/06/12 12:23:57;;;;;;;3.28;1.30;;;29.10;59.70;;;;;;5012373;28;20053;-56
2022/06/12 12:26:33;;;;;;;3.15;1.42;;;29.10;57.10;;;;;;5013236;28;20099;-56
2022/06/12 12:29:01;;;;;;;1.42;0.98;;;29.10;59.00;;;;;;5012428;28;20033;-52
2022/06/12 12:31:29;;;;;;;2.67;1.02;;;29.00;58.30;;;;;;5012316;28;20026;-52
2022/06/12 12:33:56;;;;;;;2.75;0.95;;;29.00;59.10;;;;;;5012591;28;20061;-55
2022/06/12 12:42:21;;;;;;;2.90;1.33;;;28.90;55.70;;;;;;5014125;28;20030;-55
2022/06/12 12:44:46;;;;;;;2.78;1.20;;;28.80;57.20;;;;;;5013670;28;20430;-56
2022/06/12 12:47:27;;;;;;;2.60;1.20;;;28.70;54.40;;;;;;5013039;28;20022;-55
2022/06/12 12:50:07;;;;;;;4.35;1.30;;;28.70;55.40;;;;;;5012246;28;20053;-51
2022/06/12 12:52:59;;;;;;;1.80;1.10;;;28.70;54.60;;;;;;5013521;28;20030;-53
2022/06/12 12:55:29;;;;;;;4.18;1.90;;;28.70;55.30;;;;;;5011372;28;20084;-53
2022/06/12 12:57:58;;;;;;;4.30;1.80;;;28.70;55.80;;;;;;5013404;28;20057;-55
2022/06/12 13:00:33;;;;;;;2.58;1.98;;;28.70;55.80;;;;;;5013559;28;20468;-54
2022/06/12 13:03:11;;;;;;;2.63;1.88;;;28.70;56.20;;;;;;5013159;28;20564;-56
2022/06/12 13:06:00;;;;;;;5.18;2.67;;;28.70;54.60;;;;;;5013249;28;20022;-55
2022/06/12 13:08:49;;;;;;;5.55;2.47;;;28.70;56.40;;;;;;5004562;28;20034;-56
2022/06/12 13:11:35;;;;;;;3.15;1.17;;;28.70;56.70;;;;;;5013643;28;20019;-53
2022/06/12 13:14:23;;;;;;;9.55;3.95;;;28.60;54.70;;;;;;5013444;28;20025;-52
2022/06/12 13:16:54;;;;;;;7.70;3.25;;;28.60;55.90;;;;;;5012045;28;20092;-52
2022/06/12 13:19:42;;;;;;;6.32;2.70;;;28.50;58.50;;;;;;5011864;28;20087;-52
2022/06/12 13:22:28;;;;;;;6.55;3.25;;;28.50;57.80;;;;;;5016320;28;20061;-56
2022/06/12 13:25:30;;;;;;;4.75;2.45;;;28.40;57.80;;;;;;5017098;28;20021;-55
2022/06/12 13:28:00;;;;;;;3.92;1.75;;;28.30;58.00;;;;;;5013101;28;20034;-56
2022/06/12 13:30:33;;;;;;;3.15;1.63;;;28.30;59.00;;;;;;5016760;28;20045;-53
2022/06/12 13:33:28;;;;;;;5.53;1.83;;;28.30;57.30;;;;;;5015494;28;20026;-52
2022/06/12 13:36:00;;;;;;;4.55;2.20;;;28.30;58.70;;;;;;5015435;28;20030;-52
2022/06/12 13:38:31;;;;;;;4.13;1.50;;;28.30;57.80;;;;;;5015271;28;20033;-54
2022/06/12 13:41:21;;;;;;;4.43;1.98;;;28.30;56.60;;;;;;5015689;28;20460;-56